sensor_id;sensor_type;location;lat;lon;timestamp;temperature;humidity
68842;SHT35;55849;48.482;2.332;2023-01-28T00:01:59;7.55;74.34
68842;SHT35;55849;48.482;2.332;2023-01-28T00:05:01;7.57;74.07
68842;SHT35;55849;48.482;2.332;2023-01-28T00:08:03;7.54;73.85
68842;SHT35;55849;48.482;2.332;2023-01-28T00:11:05;7.54;74.09
68842;SHT35;55849;48.482;2.332;2023-01-28T00:14:09;7.54;74.42
68842;SHT35;55849;48.482;2.332;2023-01-28T00:17:13;7.54;74.04
68842;SHT35;55849;48.482;2.332;2023-01-28T00:20:15;7.51;74.37
68842;SHT35;55849;48.482;2.332;2023-01-28T00:23:16;7.51;74.38
68842;SHT35;55849;48.482;2.332;2023-01-28T00:26:18;7.52;73.93
68842;SHT35;55849;48.482;2.332;2023-01-28T00:29:20;7.52;74.06
68842;SHT35;55849;48.482;2.332;2023-01-28T00:32:23;7.50;74.21
68842;SHT35;55849;48.482;2.332;2023-01-28T00:35:25;7.50;74.17
68842;SHT35;55849;48.482;2.332;2023-01-28T00:38:27;7.47;74.41
68842;SHT35;55849;48.482;2.332;2023-01-28T00:41:29;7.48;74.42
68842;SHT35;55849;48.482;2.332;2023-01-28T00:44:30;7.48;74.54
68842;SHT35;55849;48.482;2.332;2023-01-28T00:47:33;7.51;74.42
68842;SHT35;55849;48.482;2.332;2023-01-28T00:50:35;7.48;74.75
68842;SHT35;55849;48.482;2.332;2023-01-28T00:53:37;7.51;74.62
68842;SHT35;55849;48.482;2.332;2023-01-28T00:56:39;7.50;73.78
68842;SHT35;55849;48.482;2.332;2023-01-28T00:59:40;7.50;74.66
68842;SHT35;55849;48.482;2.332;2023-01-28T01:02:44;7.51;74.46
68842;SHT35;55849;48.482;2.332;2023-01-28T01:05:46;7.48;74.95
68842;SHT35;55849;48.482;2.332;2023-01-28T01:08:47;7.46;74.28
68842;SHT35;55849;48.482;2.332;2023-01-28T01:11:50;7.48;74.10
68842;SHT35;55849;48.482;2.332;2023-01-28T01:14:51;7.47;74.44
68842;SHT35;55849;48.482;2.332;2023-01-28T01:17:54;7.46;73.19
68842;SHT35;55849;48.482;2.332;2023-01-28T01:20:56;7.46;74.34
68842;SHT35;55849;48.482;2.332;2023-01-28T01:23:58;7.44;73.83
68842;SHT35;55849;48.482;2.332;2023-01-28T01:26:59;7.44;74.41
68842;SHT35;55849;48.482;2.332;2023-01-28T01:30:02;7.43;74.24
68842;SHT35;55849;48.482;2.332;2023-01-28T01:33:05;7.41;74.01
68842;SHT35;55849;48.482;2.332;2023-01-28T01:36:07;7.41;74.20
68842;SHT35;55849;48.482;2.332;2023-01-28T01:39:10;7.38;73.68
68842;SHT35;55849;48.482;2.332;2023-01-28T01:42:13;7.38;74.51
68842;SHT35;55849;48.482;2.332;2023-01-28T01:45:15;7.38;74.10
68842;SHT35;55849;48.482;2.332;2023-01-28T01:48:22;7.40;74.20
68842;SHT35;55849;48.482;2.332;2023-01-28T01:51:30;7.38;74.30
68842;SHT35;55849;48.482;2.332;2023-01-28T01:54:35;7.40;74.66
68842;SHT35;55849;48.482;2.332;2023-01-28T01:57:38;7.38;74.29
68842;SHT35;55849;48.482;2.332;2023-01-28T02:00:41;7.37;74.31
68842;SHT35;55849;48.482;2.332;2023-01-28T02:03:49;7.36;73.97
68842;SHT35;55849;48.482;2.332;2023-01-28T02:06:52;7.34;74.08
68842;SHT35;55849;48.482;2.332;2023-01-28T02:09:53;7.37;73.88
68842;SHT35;55849;48.482;2.332;2023-01-28T02:12:56;7.34;74.73
68842;SHT35;55849;48.482;2.332;2023-01-28T02:15:59;7.36;74.09
68842;SHT35;55849;48.482;2.332;2023-01-28T02:19:04;7.34;73.44
68842;SHT35;55849;48.482;2.332;2023-01-28T02:22:28;7.37;74.23
68842;SHT35;55849;48.482;2.332;2023-01-28T02:25:41;7.37;74.36
68842;SHT35;55849;48.482;2.332;2023-01-28T02:28:51;7.31;73.75
68842;SHT35;55849;48.482;2.332;2023-01-28T02:31:59;7.34;73.84
68842;SHT35;55849;48.482;2.332;2023-01-28T02:35:07;7.31;74.05
68842;SHT35;55849;48.482;2.332;2023-01-28T02:38:17;7.33;74.53
68842;SHT35;55849;48.482;2.332;2023-01-28T02:41:26;7.34;73.89
68842;SHT35;55849;48.482;2.332;2023-01-28T02:44:30;7.34;74.60
68842;SHT35;55849;48.482;2.332;2023-01-28T02:47:32;7.31;74.35
68842;SHT35;55849;48.482;2.332;2023-01-28T02:51:00;7.37;74.36
68842;SHT35;55849;48.482;2.332;2023-01-28T02:54:07;7.34;73.26
68842;SHT35;55849;48.482;2.332;2023-01-28T02:57:19;7.33;74.57
68842;SHT35;55849;48.482;2.332;2023-01-28T03:00:26;7.31;74.41
68842;SHT35;55849;48.482;2.332;2023-01-28T03:03:37;7.34;73.91
68842;SHT35;55849;48.482;2.332;2023-01-28T03:06:45;7.30;73.33
68842;SHT35;55849;48.482;2.332;2023-01-28T03:09:48;7.30;74.02
68842;SHT35;55849;48.482;2.332;2023-01-28T03:12:54;7.26;73.71
68842;SHT35;55849;48.482;2.332;2023-01-28T03:16:15;7.26;73.89
68842;SHT35;55849;48.482;2.332;2023-01-28T03:19:35;7.28;74.33
68842;SHT35;55849;48.482;2.332;2023-01-28T03:22:56;7.24;73.29
68842;SHT35;55849;48.482;2.332;2023-01-28T03:26:20;7.27;73.74
68842;SHT35;55849;48.482;2.332;2023-01-28T03:29:42;7.24;73.15
68842;SHT35;55849;48.482;2.332;2023-01-28T03:33:04;7.26;73.71
68842;SHT35;55849;48.482;2.332;2023-01-28T03:36:25;7.23;74.29
68842;SHT35;55849;48.482;2.332;2023-01-28T03:39:44;7.23;73.90
68842;SHT35;55849;48.482;2.332;2023-01-28T03:42:45;7.23;73.28
68842;SHT35;55849;48.482;2.332;2023-01-28T03:45:47;7.17;72.59
68842;SHT35;55849;48.482;2.332;2023-01-28T03:48:52;7.19;73.44
68842;SHT35;55849;48.482;2.332;2023-01-28T03:51:53;7.20;73.51
68842;SHT35;55849;48.482;2.332;2023-01-28T03:54:55;7.17;73.42
68842;SHT35;55849;48.482;2.332;2023-01-28T03:57:57;7.16;73.52
68842;SHT35;55849;48.482;2.332;2023-01-28T04:00:59;7.15;73.33
68842;SHT35;55849;48.482;2.332;2023-01-28T04:04:02;7.16;73.31
68842;SHT35;55849;48.482;2.332;2023-01-28T04:07:04;7.17;73.21
68842;SHT35;55849;48.482;2.332;2023-01-28T04:10:08;7.16;73.60
68842;SHT35;55849;48.482;2.332;2023-01-28T04:13:10;7.15;73.03
68842;SHT35;55849;48.482;2.332;2023-01-28T04:16:13;7.17;73.77
68842;SHT35;55849;48.482;2.332;2023-01-28T04:19:16;7.13;72.99
68842;SHT35;55849;48.482;2.332;2023-01-28T04:22:18;7.16;73.60
68842;SHT35;55849;48.482;2.332;2023-01-28T04:25:19;7.16;73.13
68842;SHT35;55849;48.482;2.332;2023-01-28T04:28:21;7.17;73.51
68842;SHT35;55849;48.482;2.332;2023-01-28T04:31:23;7.15;73.03
68842;SHT35;55849;48.482;2.332;2023-01-28T04:34:26;7.12;72.46
68842;SHT35;55849;48.482;2.332;2023-01-28T04:37:27;7.12;72.61
68842;SHT35;55849;48.482;2.332;2023-01-28T04:40:29;7.13;72.85
68842;SHT35;55849;48.482;2.332;2023-01-28T04:43:31;7.15;72.65
68842;SHT35;55849;48.482;2.332;2023-01-28T04:46:32;7.12;72.36
68842;SHT35;55849;48.482;2.332;2023-01-28T04:49:35;7.12;73.30
68842;SHT35;55849;48.482;2.332;2023-01-28T04:52:37;7.17;72.82
68842;SHT35;55849;48.482;2.332;2023-01-28T04:55:38;7.16;72.97
68842;SHT35;55849;48.482;2.332;2023-01-28T04:58:40;7.17;73.20
68842;SHT35;55849;48.482;2.332;2023-01-28T05:01:42;7.17;73.52
68842;SHT35;55849;48.482;2.332;2023-01-28T05:04:45;7.16;72.39
68842;SHT35;55849;48.482;2.332;2023-01-28T05:07:50;7.16;72.64
68842;SHT35;55849;48.482;2.332;2023-01-28T05:10:52;7.16;72.20
68842;SHT35;55849;48.482;2.332;2023-01-28T05:13:53;7.15;72.63
68842;SHT35;55849;48.482;2.332;2023-01-28T05:16:55;7.15;72.57
68842;SHT35;55849;48.482;2.332;2023-01-28T05:19:58;7.16;71.61
68842;SHT35;55849;48.482;2.332;2023-01-28T05:23:00;7.13;72.67
68842;SHT35;55849;48.482;2.332;2023-01-28T05:26:01;7.13;72.16
68842;SHT35;55849;48.482;2.332;2023-01-28T05:29:03;7.13;72.12
68842;SHT35;55849;48.482;2.332;2023-01-28T05:32:05;7.12;72.70
68842;SHT35;55849;48.482;2.332;2023-01-28T05:35:08;7.10;72.93
68842;SHT35;55849;48.482;2.332;2023-01-28T05:38:10;7.12;72.48
68842;SHT35;55849;48.482;2.332;2023-01-28T05:41:11;7.10;72.46
68842;SHT35;55849;48.482;2.332;2023-01-28T05:44:13;7.10;72.29
68842;SHT35;55849;48.482;2.332;2023-01-28T05:47:15;7.09;71.83
68842;SHT35;55849;48.482;2.332;2023-01-28T05:50:18;7.09;71.49
68842;SHT35;55849;48.482;2.332;2023-01-28T05:53:19;7.09;72.00
68842;SHT35;55849;48.482;2.332;2023-01-28T05:56:21;7.08;71.91
68842;SHT35;55849;48.482;2.332;2023-01-28T05:59:23;7.08;71.73
68842;SHT35;55849;48.482;2.332;2023-01-28T06:02:24;7.05;71.67
68842;SHT35;55849;48.482;2.332;2023-01-28T06:05:27;7.02;71.63
68842;SHT35;55849;48.482;2.332;2023-01-28T06:08:29;6.99;71.67
68842;SHT35;55849;48.482;2.332;2023-01-28T06:11:30;6.99;71.23
68842;SHT35;55849;48.482;2.332;2023-01-28T06:14:32;6.99;70.87
68842;SHT35;55849;48.482;2.332;2023-01-28T06:17:34;6.93;71.43
68842;SHT35;55849;48.482;2.332;2023-01-28T06:20:37;6.93;71.70
68842;SHT35;55849;48.482;2.332;2023-01-28T06:23:38;6.92;71.63
68842;SHT35;55849;48.482;2.332;2023-01-28T06:26:40;6.89;71.68
68842;SHT35;55849;48.482;2.332;2023-01-28T06:29:41;6.91;71.37
68842;SHT35;55849;48.482;2.332;2023-01-28T06:32:43;6.91;71.49
68842;SHT35;55849;48.482;2.332;2023-01-28T06:35:46;6.92;71.56
68842;SHT35;55849;48.482;2.332;2023-01-28T06:38:48;6.91;71.66
68842;SHT35;55849;48.482;2.332;2023-01-28T06:41:49;6.91;71.34
68842;SHT35;55849;48.482;2.332;2023-01-28T06:44:51;6.91;70.99
68842;SHT35;55849;48.482;2.332;2023-01-28T06:47:52;6.88;71.29
68842;SHT35;55849;48.482;2.332;2023-01-28T06:50:55;6.87;71.12
68842;SHT35;55849;48.482;2.332;2023-01-28T06:53:57;6.88;70.94
68842;SHT35;55849;48.482;2.332;2023-01-28T06:56:59;6.82;71.11
68842;SHT35;55849;48.482;2.332;2023-01-28T07:00:00;6.84;71.28
68842;SHT35;55849;48.482;2.332;2023-01-28T07:03:03;6.84;71.11
68842;SHT35;55849;48.482;2.332;2023-01-28T07:06:06;6.81;71.38
68842;SHT35;55849;48.482;2.332;2023-01-28T07:09:08;6.80;71.08
68842;SHT35;55849;48.482;2.332;2023-01-28T07:12:10;6.78;70.54
68842;SHT35;55849;48.482;2.332;2023-01-28T07:15:11;6.75;70.79
68842;SHT35;55849;48.482;2.332;2023-01-28T07:18:14;6.74;70.73
68842;SHT35;55849;48.482;2.332;2023-01-28T07:21:17;6.71;70.56
68842;SHT35;55849;48.482;2.332;2023-01-28T07:24:19;6.70;70.76
68842;SHT35;55849;48.482;2.332;2023-01-28T07:27:20;6.64;70.59
68842;SHT35;55849;48.482;2.332;2023-01-28T07:30:22;6.63;70.40
68842;SHT35;55849;48.482;2.332;2023-01-28T07:33:24;6.60;70.71
68842;SHT35;55849;48.482;2.332;2023-01-28T07:36:27;6.57;70.70
68842;SHT35;55849;48.482;2.332;2023-01-28T07:39:29;6.56;70.78
68842;SHT35;55849;48.482;2.332;2023-01-28T07:42:30;6.56;70.62
68842;SHT35;55849;48.482;2.332;2023-01-28T07:45:32;6.51;70.49
68842;SHT35;55849;48.482;2.332;2023-01-28T07:48:34;6.51;70.49
68842;SHT35;55849;48.482;2.332;2023-01-28T07:51:37;6.51;70.35
68842;SHT35;55849;48.482;2.332;2023-01-28T07:54:39;6.49;70.55
68842;SHT35;55849;48.482;2.332;2023-01-28T07:57:48;6.50;70.55
68842;SHT35;55849;48.482;2.332;2023-01-28T08:00:49;6.49;70.36
68842;SHT35;55849;48.482;2.332;2023-01-28T08:03:51;6.50;70.37
68842;SHT35;55849;48.482;2.332;2023-01-28T08:06:56;6.44;70.45
68842;SHT35;55849;48.482;2.332;2023-01-28T08:09:57;6.43;70.45
68842;SHT35;55849;48.482;2.332;2023-01-28T08:12:59;6.40;70.30
68842;SHT35;55849;48.482;2.332;2023-01-28T08:16:01;6.41;70.79
68842;SHT35;55849;48.482;2.332;2023-01-28T08:19:03;6.43;70.81
68842;SHT35;55849;48.482;2.332;2023-01-28T08:22:06;6.43;70.95
68842;SHT35;55849;48.482;2.332;2023-01-28T08:25:07;6.49;71.02
68842;SHT35;55849;48.482;2.332;2023-01-28T08:28:10;6.49;71.12
68842;SHT35;55849;48.482;2.332;2023-01-28T08:31:12;6.54;71.19
68842;SHT35;55849;48.482;2.332;2023-01-28T08:34:13;6.54;70.99
68842;SHT35;55849;48.482;2.332;2023-01-28T08:37:16;6.56;71.08
68842;SHT35;55849;48.482;2.332;2023-01-28T08:40:18;6.60;71.05
68842;SHT35;55849;48.482;2.332;2023-01-28T08:43:20;6.63;71.24
68842;SHT35;55849;48.482;2.332;2023-01-28T08:46:22;6.68;71.15
68842;SHT35;55849;48.482;2.332;2023-01-28T08:49:24;6.67;71.07
68842;SHT35;55849;48.482;2.332;2023-01-28T08:52:26;6.73;71.02
68842;SHT35;55849;48.482;2.332;2023-01-28T08:55:28;6.75;70.85
68842;SHT35;55849;48.482;2.332;2023-01-28T08:58:30;6.78;70.78
68842;SHT35;55849;48.482;2.332;2023-01-28T09:01:32;6.78;70.75
68842;SHT35;55849;48.482;2.332;2023-01-28T09:04:33;6.84;71.02
68842;SHT35;55849;48.482;2.332;2023-01-28T09:07:37;6.82;71.00
68842;SHT35;55849;48.482;2.332;2023-01-28T09:10:39;6.88;70.73
68842;SHT35;55849;48.482;2.332;2023-01-28T09:13:41;6.91;70.64
68842;SHT35;55849;48.482;2.332;2023-01-28T09:16:43;6.93;70.58
68842;SHT35;55849;48.482;2.332;2023-01-28T09:19:44;6.93;70.56
68842;SHT35;55849;48.482;2.332;2023-01-28T09:22:47;6.96;70.61
68842;SHT35;55849;48.482;2.332;2023-01-28T09:25:49;7.02;70.55
68842;SHT35;55849;48.482;2.332;2023-01-28T09:28:50;7.05;70.50
68842;SHT35;55849;48.482;2.332;2023-01-28T09:31:52;7.08;70.40
68842;SHT35;55849;48.482;2.332;2023-01-28T09:34:54;7.15;70.50
68842;SHT35;55849;48.482;2.332;2023-01-28T09:37:57;7.16;70.28
68842;SHT35;55849;48.482;2.332;2023-01-28T09:40:59;7.15;70.08
68842;SHT35;55849;48.482;2.332;2023-01-28T09:44:05;7.22;69.93
68842;SHT35;55849;48.482;2.332;2023-01-28T09:47:19;7.23;70.01
68842;SHT35;55849;48.482;2.332;2023-01-28T09:50:27;7.23;69.70
68842;SHT35;55849;48.482;2.332;2023-01-28T09:53:34;7.26;69.89
68842;SHT35;55849;48.482;2.332;2023-01-28T09:56:41;7.28;69.58
68842;SHT35;55849;48.482;2.332;2023-01-28T09:59:45;7.31;69.77
68842;SHT35;55849;48.482;2.332;2023-01-28T10:02:58;7.34;69.72
68842;SHT35;55849;48.482;2.332;2023-01-28T10:06:09;7.37;69.86
68842;SHT35;55849;48.482;2.332;2023-01-28T10:09:25;7.41;69.60
68842;SHT35;55849;48.482;2.332;2023-01-28T10:12:41;7.44;69.38
68842;SHT35;55849;48.482;2.332;2023-01-28T10:15:56;7.47;69.29
68842;SHT35;55849;48.482;2.332;2023-01-28T10:19:02;7.51;69.46
68842;SHT35;55849;48.482;2.332;2023-01-28T10:22:12;7.55;69.32
68842;SHT35;55849;48.482;2.332;2023-01-28T10:25:18;7.61;69.44
68842;SHT35;55849;48.482;2.332;2023-01-28T10:28:23;7.64;69.56
68842;SHT35;55849;48.482;2.332;2023-01-28T10:31:30;7.71;69.60
68842;SHT35;55849;48.482;2.332;2023-01-28T10:34:36;7.75;69.34
68842;SHT35;55849;48.482;2.332;2023-01-28T10:37:41;7.82;69.03
68842;SHT35;55849;48.482;2.332;2023-01-28T10:40:45;7.87;68.98
68842;SHT35;55849;48.482;2.332;2023-01-28T10:43:48;7.89;68.87
68842;SHT35;55849;48.482;2.332;2023-01-28T10:46:50;7.96;68.83
68842;SHT35;55849;48.482;2.332;2023-01-28T10:49:55;8.03;68.61
68842;SHT35;55849;48.482;2.332;2023-01-28T10:53:00;8.07;68.28
68842;SHT35;55849;48.482;2.332;2023-01-28T10:56:06;8.14;68.44
68842;SHT35;55849;48.482;2.332;2023-01-28T10:59:19;8.19;67.94
68842;SHT35;55849;48.482;2.332;2023-01-28T11:02:30;8.23;68.53
68842;SHT35;55849;48.482;2.332;2023-01-28T11:05:35;8.29;67.46
68842;SHT35;55849;48.482;2.332;2023-01-28T11:08:43;8.33;67.13
68842;SHT35;55849;48.482;2.332;2023-01-28T11:11:46;8.33;67.25
68842;SHT35;55849;48.482;2.332;2023-01-28T11:14:54;8.37;66.49
68842;SHT35;55849;48.482;2.332;2023-01-28T11:17:58;8.37;66.52
68842;SHT35;55849;48.482;2.332;2023-01-28T11:21:04;8.38;66.43
68842;SHT35;55849;48.482;2.332;2023-01-28T11:24:14;8.38;65.85
68842;SHT35;55849;48.482;2.332;2023-01-28T11:27:26;8.41;65.84
68842;SHT35;55849;48.482;2.332;2023-01-28T11:30:30;8.38;65.58
68842;SHT35;55849;48.482;2.332;2023-01-28T11:33:36;8.38;65.66
68842;SHT35;55849;48.482;2.332;2023-01-28T11:36:49;8.41;65.51
68842;SHT35;55849;48.482;2.332;2023-01-28T11:40:00;8.40;65.76
68842;SHT35;55849;48.482;2.332;2023-01-28T11:43:07;8.36;65.30
68842;SHT35;55849;48.482;2.332;2023-01-28T11:46:22;8.37;65.26
68842;SHT35;55849;48.482;2.332;2023-01-28T11:49:40;8.33;64.11
68842;SHT35;55849;48.482;2.332;2023-01-28T11:53:01;8.29;64.94
68842;SHT35;55849;48.482;2.332;2023-01-28T11:56:26;8.29;64.76
68842;SHT35;55849;48.482;2.332;2023-01-28T11:59:49;8.26;64.85
68842;SHT35;55849;48.482;2.332;2023-01-28T12:02:55;8.21;64.79
68842;SHT35;55849;48.482;2.332;2023-01-28T12:06:14;8.20;64.56
68842;SHT35;55849;48.482;2.332;2023-01-28T12:09:24;8.21;64.50
68842;SHT35;55849;48.482;2.332;2023-01-28T12:12:42;8.19;64.72
68842;SHT35;55849;48.482;2.332;2023-01-28T12:16:08;8.20;65.21
68842;SHT35;55849;48.482;2.332;2023-01-28T12:19:36;8.20;65.37
68842;SHT35;55849;48.482;2.332;2023-01-28T12:23:03;8.26;64.98
68842;SHT35;55849;48.482;2.332;2023-01-28T12:26:11;8.27;64.97
68842;SHT35;55849;48.482;2.332;2023-01-28T12:29:23;8.29;64.77
68842;SHT35;55849;48.482;2.332;2023-01-28T12:32:37;8.29;65.04
68842;SHT35;55849;48.482;2.332;2023-01-28T12:35:53;8.31;64.77
68842;SHT35;55849;48.482;2.332;2023-01-28T12:39:10;8.33;64.63
68842;SHT35;55849;48.482;2.332;2023-01-28T12:42:19;8.31;64.70
68842;SHT35;55849;48.482;2.332;2023-01-28T12:45:28;8.33;64.61
68842;SHT35;55849;48.482;2.332;2023-01-28T12:48:36;8.31;64.63
68842;SHT35;55849;48.482;2.332;2023-01-28T12:51:52;8.34;64.50
68842;SHT35;55849;48.482;2.332;2023-01-28T12:54:58;8.34;64.67
68842;SHT35;55849;48.482;2.332;2023-01-28T12:58:00;8.37;64.35
68842;SHT35;55849;48.482;2.332;2023-01-28T13:01:07;8.34;64.46
68842;SHT35;55849;48.482;2.332;2023-01-28T13:04:15;8.38;64.45
68842;SHT35;55849;48.482;2.332;2023-01-28T13:07:23;8.40;64.57
68842;SHT35;55849;48.482;2.332;2023-01-28T13:10:31;8.38;64.63
68842;SHT35;55849;48.482;2.332;2023-01-28T13:13:38;8.41;64.44
68842;SHT35;55849;48.482;2.332;2023-01-28T13:16:41;8.40;64.32
68842;SHT35;55849;48.482;2.332;2023-01-28T13:19:44;8.36;64.39
68842;SHT35;55849;48.482;2.332;2023-01-28T13:22:46;8.38;64.02
68842;SHT35;55849;48.482;2.332;2023-01-28T13:25:48;8.37;64.29
68842;SHT35;55849;48.482;2.332;2023-01-28T13:28:51;8.40;64.17
68842;SHT35;55849;48.482;2.332;2023-01-28T13:31:55;8.38;64.33
68842;SHT35;55849;48.482;2.332;2023-01-28T13:35:00;8.37;64.00
68842;SHT35;55849;48.482;2.332;2023-01-28T13:38:08;8.34;64.04
68842;SHT35;55849;48.482;2.332;2023-01-28T13:41:10;8.33;64.46
68842;SHT35;55849;48.482;2.332;2023-01-28T13:44:20;8.30;64.31
68842;SHT35;55849;48.482;2.332;2023-01-28T13:47:26;8.33;64.42
68842;SHT35;55849;48.482;2.332;2023-01-28T13:50:38;8.33;64.55
68842;SHT35;55849;48.482;2.332;2023-01-28T13:53:44;8.34;64.51
68842;SHT35;55849;48.482;2.332;2023-01-28T13:57:03;8.30;64.38
68842;SHT35;55849;48.482;2.332;2023-01-28T14:00:12;8.30;64.28
68842;SHT35;55849;48.482;2.332;2023-01-28T14:10:42;8.29;63.94
68842;SHT35;55849;48.482;2.332;2023-01-28T14:14:03;8.29;64.17
68842;SHT35;55849;48.482;2.332;2023-01-28T14:17:13;8.24;64.13
68842;SHT35;55849;48.482;2.332;2023-01-28T14:20:20;8.27;64.23
68842;SHT35;55849;48.482;2.332;2023-01-28T14:23:23;8.29;64.05
68842;SHT35;55849;48.482;2.332;2023-01-28T14:26:41;8.27;63.84
68842;SHT35;55849;48.482;2.332;2023-01-28T14:29:53;8.30;64.28
68842;SHT35;55849;48.482;2.332;2023-01-28T14:32:56;8.31;63.79
68842;SHT35;55849;48.482;2.332;2023-01-28T14:35:58;8.33;63.88
68842;SHT35;55849;48.482;2.332;2023-01-28T14:38:59;8.27;63.72
68842;SHT35;55849;48.482;2.332;2023-01-28T14:42:03;8.27;63.61
68842;SHT35;55849;48.482;2.332;2023-01-28T14:45:13;8.30;63.45
68842;SHT35;55849;48.482;2.332;2023-01-28T14:48:23;8.27;62.95
68842;SHT35;55849;48.482;2.332;2023-01-28T14:51:37;8.29;63.08
68842;SHT35;55849;48.482;2.332;2023-01-28T14:54:49;8.27;62.81
68842;SHT35;55849;48.482;2.332;2023-01-28T14:57:57;8.26;63.05
68842;SHT35;55849;48.482;2.332;2023-01-28T15:01:00;8.26;62.51
68842;SHT35;55849;48.482;2.332;2023-01-28T15:04:02;8.21;62.37
68842;SHT35;55849;48.482;2.332;2023-01-28T15:07:16;8.23;62.19
68842;SHT35;55849;48.482;2.332;2023-01-28T15:10:20;8.23;62.09
68842;SHT35;55849;48.482;2.332;2023-01-28T15:13:25;8.20;62.00
68842;SHT35;55849;48.482;2.332;2023-01-28T15:16:29;8.17;62.09
68842;SHT35;55849;48.482;2.332;2023-01-28T15:19:33;8.20;61.88
68842;SHT35;55849;48.482;2.332;2023-01-28T15:22:36;8.16;62.08
68842;SHT35;55849;48.482;2.332;2023-01-28T15:25:39;8.17;62.06
68842;SHT35;55849;48.482;2.332;2023-01-28T15:28:43;8.16;61.71
68842;SHT35;55849;48.482;2.332;2023-01-28T15:31:47;8.12;61.60
68842;SHT35;55849;48.482;2.332;2023-01-28T15:34:49;8.12;61.97
68842;SHT35;55849;48.482;2.332;2023-01-28T15:37:50;8.10;62.15
68842;SHT35;55849;48.482;2.332;2023-01-28T15:40:54;8.12;61.84
68842;SHT35;55849;48.482;2.332;2023-01-28T15:43:58;8.07;61.67
68842;SHT35;55849;48.482;2.332;2023-01-28T15:47:01;8.09;61.43
68842;SHT35;55849;48.482;2.332;2023-01-28T15:50:06;8.06;61.37
68842;SHT35;55849;48.482;2.332;2023-01-28T15:53:09;8.00;61.84
68842;SHT35;55849;48.482;2.332;2023-01-28T15:56:13;8.02;61.75
68842;SHT35;55849;48.482;2.332;2023-01-28T15:59:25;7.99;61.55
68842;SHT35;55849;48.482;2.332;2023-01-28T16:02:27;7.99;61.51
68842;SHT35;55849;48.482;2.332;2023-01-28T16:05:32;7.99;61.02
68842;SHT35;55849;48.482;2.332;2023-01-28T16:08:38;7.96;61.48
68842;SHT35;55849;48.482;2.332;2023-01-28T16:11:41;7.95;61.41
68842;SHT35;55849;48.482;2.332;2023-01-28T16:14:49;7.95;61.49
68842;SHT35;55849;48.482;2.332;2023-01-28T16:17:52;7.90;61.42
68842;SHT35;55849;48.482;2.332;2023-01-28T16:20:53;7.90;61.46
68842;SHT35;55849;48.482;2.332;2023-01-28T16:24:00;7.87;61.25
68842;SHT35;55849;48.482;2.332;2023-01-28T16:27:03;7.89;61.56
68842;SHT35;55849;48.482;2.332;2023-01-28T16:30:09;7.85;61.71
68842;SHT35;55849;48.482;2.332;2023-01-28T16:33:16;7.82;61.53
68842;SHT35;55849;48.482;2.332;2023-01-28T16:36:19;7.81;61.50
68842;SHT35;55849;48.482;2.332;2023-01-28T16:39:21;7.81;61.00
68842;SHT35;55849;48.482;2.332;2023-01-28T16:42:22;7.79;61.33
68842;SHT35;55849;48.482;2.332;2023-01-28T16:45:25;7.81;61.27
68842;SHT35;55849;48.482;2.332;2023-01-28T16:48:27;7.75;60.69
68842;SHT35;55849;48.482;2.332;2023-01-28T16:51:30;7.72;60.91
68842;SHT35;55849;48.482;2.332;2023-01-28T16:54:32;7.72;60.72
68842;SHT35;55849;48.482;2.332;2023-01-28T16:57:35;7.68;60.50
68842;SHT35;55849;48.482;2.332;2023-01-28T17:00:38;7.68;60.36
68842;SHT35;55849;48.482;2.332;2023-01-28T17:03:39;7.68;60.58
68842;SHT35;55849;48.482;2.332;2023-01-28T17:06:42;7.64;61.06
68842;SHT35;55849;48.482;2.332;2023-01-28T17:09:44;7.65;60.73
68842;SHT35;55849;48.482;2.332;2023-01-28T17:12:46;7.65;60.71
68842;SHT35;55849;48.482;2.332;2023-01-28T17:15:50;7.61;60.70
68842;SHT35;55849;48.482;2.332;2023-01-28T17:18:52;7.62;60.64
68842;SHT35;55849;48.482;2.332;2023-01-28T17:21:53;7.60;60.73
68842;SHT35;55849;48.482;2.332;2023-01-28T17:24:55;7.58;60.61
68842;SHT35;55849;48.482;2.332;2023-01-28T17:27:57;7.57;60.48
68842;SHT35;55849;48.482;2.332;2023-01-28T17:31:04;7.55;60.82
68842;SHT35;55849;48.482;2.332;2023-01-28T17:34:06;7.54;61.03
68842;SHT35;55849;48.482;2.332;2023-01-28T17:37:10;7.55;61.05
68842;SHT35;55849;48.482;2.332;2023-01-28T17:40:12;7.52;60.94
68842;SHT35;55849;48.482;2.332;2023-01-28T17:43:14;7.51;60.77
68842;SHT35;55849;48.482;2.332;2023-01-28T17:46:17;7.51;60.94
68842;SHT35;55849;48.482;2.332;2023-01-28T17:49:19;7.50;60.94
68842;SHT35;55849;48.482;2.332;2023-01-28T17:52:21;7.46;60.83
68842;SHT35;55849;48.482;2.332;2023-01-28T17:55:22;7.48;61.01
68842;SHT35;55849;48.482;2.332;2023-01-28T17:58:24;7.47;61.12
68842;SHT35;55849;48.482;2.332;2023-01-28T18:01:27;7.44;60.32
68842;SHT35;55849;48.482;2.332;2023-01-28T18:04:29;7.43;60.44
68842;SHT35;55849;48.482;2.332;2023-01-28T18:07:31;7.38;60.49
68842;SHT35;55849;48.482;2.332;2023-01-28T18:10:32;7.40;60.71
68842;SHT35;55849;48.482;2.332;2023-01-28T18:13:34;7.37;60.87
68842;SHT35;55849;48.482;2.332;2023-01-28T18:16:38;7.36;60.90
68842;SHT35;55849;48.482;2.332;2023-01-28T18:19:39;7.33;60.46
68842;SHT35;55849;48.482;2.332;2023-01-28T18:22:41;7.33;60.68
68842;SHT35;55849;48.482;2.332;2023-01-28T18:25:43;7.28;60.72
68842;SHT35;55849;48.482;2.332;2023-01-28T18:28:44;7.28;60.67
68842;SHT35;55849;48.482;2.332;2023-01-28T18:31:49;7.28;60.70
68842;SHT35;55849;48.482;2.332;2023-01-28T18:34:50;7.24;60.68
68842;SHT35;55849;48.482;2.332;2023-01-28T18:37:52;7.23;60.70
68842;SHT35;55849;48.482;2.332;2023-01-28T18:40:54;7.16;60.65
68842;SHT35;55849;48.482;2.332;2023-01-28T18:43:56;7.16;60.91
68842;SHT35;55849;48.482;2.332;2023-01-28T18:46:59;7.16;60.90
68842;SHT35;55849;48.482;2.332;2023-01-28T18:50:01;7.16;61.03
68842;SHT35;55849;48.482;2.332;2023-01-28T18:53:03;7.10;60.74
68842;SHT35;55849;48.482;2.332;2023-01-28T18:56:06;7.10;60.87
68842;SHT35;55849;48.482;2.332;2023-01-28T18:59:10;7.12;60.97
68842;SHT35;55849;48.482;2.332;2023-01-28T19:02:13;7.12;60.88
68842;SHT35;55849;48.482;2.332;2023-01-28T19:05:15;7.12;60.81
68842;SHT35;55849;48.482;2.332;2023-01-28T19:08:17;7.08;60.81
68842;SHT35;55849;48.482;2.332;2023-01-28T19:11:19;7.09;60.72
68842;SHT35;55849;48.482;2.332;2023-01-28T19:14:20;7.09;60.64
68842;SHT35;55849;48.482;2.332;2023-01-28T19:17:23;7.05;60.75
68842;SHT35;55849;48.482;2.332;2023-01-28T19:20:25;7.03;60.43
68842;SHT35;55849;48.482;2.332;2023-01-28T19:23:27;7.03;60.49
68842;SHT35;55849;48.482;2.332;2023-01-28T19:26:29;7.02;60.39
68842;SHT35;55849;48.482;2.332;2023-01-28T19:29:31;7.01;60.44
68842;SHT35;55849;48.482;2.332;2023-01-28T19:32:34;7.02;60.54
68842;SHT35;55849;48.482;2.332;2023-01-28T19:35:36;7.01;60.36
68842;SHT35;55849;48.482;2.332;2023-01-28T19:38:37;7.02;60.31
68842;SHT35;55849;48.482;2.332;2023-01-28T19:41:39;6.99;60.23
68842;SHT35;55849;48.482;2.332;2023-01-28T19:44:41;7.01;60.18
68842;SHT35;55849;48.482;2.332;2023-01-28T19:47:43;6.99;60.42
68842;SHT35;55849;48.482;2.332;2023-01-28T19:50:45;6.98;60.22
68842;SHT35;55849;48.482;2.332;2023-01-28T19:53:49;6.99;59.94